Etusivu
METAR-TAF:

METAR-TAF

Lentoasemat :

Kingston, Jamaika

Leveyspiiri: 17-56N, Pituuspiiri: 076-47W, korkeus merenpinnasta: 3 m

Tämänhetkinen sää

Tämä raportti tehtiin 44 minuuttia sitten, kello 21.00 UTC
Tuuli 19 kn kaakosta
Lämpötila 30°C
Kosteus 79%
Ilmanpaine 1012 hPa
Näkyvyys 10 km tai enemmän
Muutamia pilviä 2200 ft:n korkeudessa

METAR: MKJP 242100Z 14019KT 9999 FEW022 30/26 Q1012

Aika: 16:44 (21:44 UTC)

Sääennuste

Tämä raportti tehtiin 4 tuntia ja 29 minuuttia sitten, kello 17.15 UTC
Ennuste voimassa 24. päivästä klo 18 UTC - 25. päivään klo 18 UTC
Tuuli 22 kn kaakosta
Näkyvyys 10 km tai enemmän
Muutamia pilviä 2200 ft:n korkeudessa
Tulossa
25. päivästä klo 02 UTC - 25. päivään klo 04 UTC
Tuuli 12 kn kaakosta
Tulossa
25. päivästä klo 14 UTC - 25. päivään klo 16 UTC
Tuuli 25 kn kaakosta

TAF: MKJP 241715Z 2418/2518 14022KT 9999 FEW022 BECMG 2502/2504 14012KT BECMG 2514/2516 14025KT

Säähavainnot ja -ennusteet yli 4000 lentoasemalta (METAR- ja TAF-raportit).

Käytössä olevat sääasemat on merkitty karttaan keltaisilla ja punaisilla pisteillä.

Aseta hiiri pisteen päälle nähdäksesi sääaseman nimen.

Klikkaa sitten nähdäksesi säähavainnot ja -ennusteet.

Kartan vaihtaminen: klikkaa mustalla rastilla varustettuja vihreitä pisteitä, niin voit zoomata sisään; viivalla varustettua vihreää pistettä, niin voit zoomata ulos tai vihreitä nuolia, niin pääset viereisille kartoille.


METAR-TAF: